world map with XDA marked

XDA - Airport

This information may not be accurate or current and is not valid for navigation or flight planning. No warranty of fitness for any purpose is made or implied.

flag of Aquitaineflag of France

Donate via PayPal

Additional information is available on the NEW Great Circle Mapper

Location
City:  Dax/Seyresse, Aquitaine, France
ICAO / IATA:LFBY / XDA

Details
Type:Airport (Aerodrome, Airfield)
Use:Public/Civil
Latitude:43°41'21"N (43.689167)
Longitude:1°04'08"W (-1.068888)
Elevation:108 ft (33 m)
Runways:1
Longest:2625 × 131 ft (800 × 40 m)

Time
Timezone:UTC+1 (DST+4)
Local Time:

Weather
METAR:LFBY  041400Z VRB02KT CAVOK 09/M02 Q1027

Related Locations
Nearby:
Farthest:CHT: 12210 mi / 19650 km
Waitangi [Tuuta], CIT, NZ

Find:

   beyond  
but within

Other Information
Maps:
Sources:

  


 


Great Circle Mapper   Great Circle Mapper
Great Circle Mapper FAQ   Great Circle Mapper FAQ
  Karl's Home Page
KLSē   KLSē Home
   GC on Facebook
Airlines of the World   Airlines of the World
Donate via PayPal


Copyright © 2004-2019, Karl L. Swartz. All rights reserved.
All trademarks mentioned herein belong to their respective owners.

Please see credits for attribution and copyright information.

Karl Swartz <karl@kls2.com>
  Powered by FreeBSD
Valid HTML 4.01!
Labeled with ICRA
hCard Microformat
Geo Microformat